createdAt,value
2017-03-31T00:00:39.819Z,1017.24
2017-03-31T00:01:27.223Z,1017.25
2017-03-31T00:02:07.793Z,1017.24
2017-03-31T00:02:48.390Z,1017.24
2017-03-31T00:03:28.989Z,1017.25
2017-03-31T00:04:09.556Z,1017.19
2017-03-31T00:04:50.124Z,1017.21
2017-03-31T00:05:30.701Z,1017.18
2017-03-31T00:06:11.285Z,1017.17
2017-03-31T00:06:51.849Z,1017.18
2017-03-31T00:07:32.421Z,1017.16
2017-03-31T00:08:13.002Z,1017.15
2017-03-31T00:08:53.580Z,1017.14
2017-03-31T00:09:34.152Z,1017.13
2017-03-31T00:10:14.744Z,1017.16
2017-03-31T00:10:55.353Z,1017.16
2017-03-31T00:11:35.964Z,1017.11
2017-03-31T00:12:16.577Z,1017.17
2017-03-31T00:12:57.472Z,1017.13
2017-03-31T00:13:38.067Z,1017.12
2017-03-31T00:14:18.655Z,1017.14
2017-03-31T00:14:59.245Z,1017.12
2017-03-31T00:15:39.872Z,1017.09
2017-03-31T00:16:20.503Z,1017.14
2017-03-31T00:17:01.137Z,1017.11
2017-03-31T00:17:41.700Z,1017.11
2017-03-31T00:18:22.277Z,1017.09
2017-03-31T00:19:02.845Z,1017.1
2017-03-31T00:19:43.429Z,1017.07
2017-03-31T00:20:24.048Z,1017.06
2017-03-31T00:21:04.620Z,1017.02
2017-03-31T00:21:45.248Z,1017.03
2017-03-31T00:22:25.807Z,1017.05
2017-03-31T00:23:06.415Z,1017.04
2017-03-31T00:23:47.010Z,1017.03
2017-03-31T00:24:27.583Z,1017
2017-03-31T00:25:08.146Z,1016.99
2017-03-31T00:25:48.753Z,1017
2017-03-31T00:26:29.337Z,1016.97
2017-03-31T00:27:09.929Z,1016.99
2017-03-31T00:27:50.509Z,1016.95
2017-03-31T00:28:31.097Z,1016.96
2017-03-31T00:29:11.716Z,1016.97
2017-03-31T00:29:52.300Z,1016.91
2017-03-31T00:30:32.882Z,1016.93
2017-03-31T00:31:13.511Z,1016.94
2017-03-31T00:31:54.112Z,1016.94
2017-03-31T00:32:34.672Z,1016.91
2017-03-31T00:33:15.253Z,1016.94
2017-03-31T00:33:55.917Z,1016.9
2017-03-31T00:34:36.504Z,1016.92
2017-03-31T00:35:17.113Z,1016.94
2017-03-31T00:35:57.691Z,1016.92
2017-03-31T00:36:38.275Z,1016.9
2017-03-31T00:37:18.871Z,1016.88
2017-03-31T00:37:59.450Z,1016.89
2017-03-31T00:38:40.039Z,1016.93
2017-03-31T00:39:20.594Z,1016.92
2017-03-31T00:40:01.157Z,1016.92
2017-03-31T00:40:41.735Z,1016.87
2017-03-31T00:41:22.330Z,1016.87
2017-03-31T00:42:02.892Z,1016.9
2017-03-31T00:42:43.459Z,1016.89
2017-03-31T00:43:24.030Z,1016.84
2017-03-31T00:44:04.617Z,1016.85
2017-03-31T00:44:45.198Z,1016.8
2017-03-31T00:45:25.807Z,1016.84
2017-03-31T00:46:06.378Z,1016.82
2017-03-31T00:46:46.952Z,1016.84
2017-03-31T00:47:27.587Z,1016.83
2017-03-31T00:48:08.131Z,1016.82
2017-03-31T00:48:48.701Z,1016.78
2017-03-31T00:49:29.305Z,1016.76
2017-03-31T00:50:09.867Z,1016.77
2017-03-31T00:50:50.437Z,1016.76
2017-03-31T00:51:31.011Z,1016.74
2017-03-31T00:52:11.617Z,1016.72
2017-03-31T00:52:52.196Z,1016.71
2017-03-31T00:53:32.802Z,1016.74
2017-03-31T00:54:13.404Z,1016.7
2017-03-31T00:54:53.976Z,1016.67
2017-03-31T00:55:34.562Z,1016.69
2017-03-31T00:56:15.162Z,1016.69
2017-03-31T00:56:55.751Z,1016.69
2017-03-31T00:57:36.332Z,1016.68
2017-03-31T00:58:16.917Z,1016.65
2017-03-31T00:59:00.217Z,1016.67
2017-03-31T00:59:40.786Z,1016.64
2017-03-31T01:00:21.370Z,1016.66
2017-03-31T01:01:01.944Z,1016.62
2017-03-31T01:01:42.525Z,1016.61
2017-03-31T01:02:23.079Z,1016.58
2017-03-31T01:03:03.710Z,1016.6
2017-03-31T01:03:44.279Z,1016.59
2017-03-31T01:04:24.874Z,1016.59
2017-03-31T01:05:05.465Z,1016.56
2017-03-31T01:05:46.048Z,1016.52
2017-03-31T01:06:26.641Z,1016.54
2017-03-31T01:07:07.223Z,1016.55
2017-03-31T01:07:47.804Z,1016.52
2017-03-31T01:08:28.418Z,1016.53
2017-03-31T01:09:08.963Z,1016.52
2017-03-31T01:09:49.545Z,1016.52
2017-03-31T01:10:30.134Z,1016.52
2017-03-31T01:11:10.728Z,1016.51
2017-03-31T01:11:51.320Z,1016.5
2017-03-31T01:12:31.928Z,1016.49
2017-03-31T01:13:12.505Z,1016.51
2017-03-31T01:13:53.096Z,1016.51
2017-03-31T01:14:33.720Z,1016.49
2017-03-31T01:15:14.307Z,1016.48
2017-03-31T01:15:54.910Z,1016.46
2017-03-31T01:16:35.481Z,1016.48
2017-03-31T01:17:16.060Z,1016.44
2017-03-31T01:17:56.632Z,1016.47
2017-03-31T01:18:37.219Z,1016.48
2017-03-31T01:19:17.820Z,1016.46
2017-03-31T01:19:58.457Z,1016.46
2017-03-31T01:20:39.022Z,1016.47
2017-03-31T01:21:19.636Z,1016.43
2017-03-31T01:22:00.228Z,1016.45
2017-03-31T01:22:40.798Z,1016.42
2017-03-31T01:23:21.372Z,1016.43
2017-03-31T01:24:01.937Z,1016.43
2017-03-31T01:24:42.504Z,1016.42
2017-03-31T01:25:23.071Z,1016.44
2017-03-31T01:26:03.664Z,1016.42
2017-03-31T01:26:44.235Z,1016.4
2017-03-31T01:27:24.810Z,1016.39
2017-03-31T01:28:05.381Z,1016.42
2017-03-31T01:28:45.960Z,1016.45
2017-03-31T01:29:26.543Z,1016.38
2017-03-31T01:30:07.132Z,1016.44
2017-03-31T01:30:47.716Z,1016.37
2017-03-31T01:31:28.309Z,1016.36
2017-03-31T01:32:08.898Z,1016.34
2017-03-31T01:32:49.474Z,1016.34
2017-03-31T01:33:30.121Z,1016.31
2017-03-31T01:34:10.701Z,1016.36
2017-03-31T01:34:51.279Z,1016.31
2017-03-31T01:35:31.866Z,1016.33
2017-03-31T01:36:12.495Z,1016.32
2017-03-31T01:36:53.079Z,1016.3
2017-03-31T01:37:33.652Z,1016.27
2017-03-31T01:38:14.247Z,1016.27
2017-03-31T01:38:54.818Z,1016.28
2017-03-31T01:39:35.384Z,1016.26
2017-03-31T01:40:15.957Z,1016.25
2017-03-31T01:40:56.558Z,1016.25
2017-03-31T01:41:37.158Z,1016.27
2017-03-31T01:42:17.739Z,1016.24
2017-03-31T01:42:58.306Z,1016.22
2017-03-31T01:43:38.904Z,1016.22
2017-03-31T01:44:19.481Z,1016.24
2017-03-31T01:45:00.055Z,1016.19
2017-03-31T01:45:40.685Z,1016.21
2017-03-31T01:46:21.263Z,1016.2
2017-03-31T01:47:01.839Z,1016.21
2017-03-31T01:47:42.426Z,1016.18
2017-03-31T01:48:23.021Z,1016.13
2017-03-31T01:49:03.627Z,1016.11
2017-03-31T01:49:44.218Z,1016.15
2017-03-31T01:50:24.813Z,1016.11
2017-03-31T01:51:05.436Z,1016.06
2017-03-31T01:51:46.032Z,1016.14
2017-03-31T01:52:26.630Z,1016.14
2017-03-31T01:53:07.224Z,1016.13
2017-03-31T01:53:47.835Z,1016.11
2017-03-31T01:54:28.431Z,1016.06
2017-03-31T01:55:09.050Z,1016.08
2017-03-31T01:55:49.650Z,1016.06
2017-03-31T01:56:30.229Z,1016.09
2017-03-31T01:57:10.806Z,1016.1
2017-03-31T01:57:51.402Z,1016.06
2017-03-31T01:58:32.009Z,1016.05
2017-03-31T01:59:12.601Z,1016.06
2017-03-31T01:59:53.187Z,1016.02
2017-03-31T02:00:33.765Z,1016.02
2017-03-31T02:01:14.354Z,1016.03
2017-03-31T02:01:54.960Z,1016.02
2017-03-31T02:02:35.549Z,1016.03
2017-03-31T02:03:16.139Z,1016.01
2017-03-31T02:03:56.730Z,1016.02
2017-03-31T02:04:37.304Z,1016
2017-03-31T02:05:17.891Z,1016.02
2017-03-31T02:05:58.464Z,1016
2017-03-31T02:06:39.038Z,1015.98
2017-03-31T02:07:19.634Z,1015.99
2017-03-31T02:08:00.215Z,1015.97
2017-03-31T02:08:40.782Z,1015.98
2017-03-31T02:09:21.356Z,1015.99
2017-03-31T02:10:01.930Z,1015.96
2017-03-31T02:10:42.515Z,1015.94
2017-03-31T02:11:23.126Z,1015.97
2017-03-31T02:12:03.712Z,1015.95
2017-03-31T02:12:44.303Z,1015.98
2017-03-31T02:13:24.915Z,1015.96
2017-03-31T02:14:05.510Z,1015.95
2017-03-31T02:14:46.078Z,1015.98
2017-03-31T02:15:26.668Z,1015.92
2017-03-31T02:16:07.244Z,1015.94
2017-03-31T02:16:47.821Z,1015.95
2017-03-31T02:17:28.402Z,1015.96
2017-03-31T02:18:08.974Z,1015.92
2017-03-31T02:18:49.605Z,1015.94
2017-03-31T02:19:30.147Z,1015.93
2017-03-31T02:20:10.729Z,1015.94
2017-03-31T02:20:51.315Z,1015.94
2017-03-31T02:21:31.893Z,1015.9
2017-03-31T02:22:12.648Z,1015.89
2017-03-31T02:22:53.098Z,1015.91
2017-03-31T02:23:33.679Z,1015.88
2017-03-31T02:24:14.296Z,1015.9
2017-03-31T02:24:54.874Z,1015.91
2017-03-31T02:25:35.490Z,1015.89
2017-03-31T02:26:16.089Z,1015.92
2017-03-31T02:26:56.669Z,1015.89
2017-03-31T02:27:37.246Z,1015.91
2017-03-31T02:28:17.846Z,1015.89
2017-03-31T02:28:58.424Z,1015.9
2017-03-31T02:29:39.013Z,1015.86
2017-03-31T02:30:19.634Z,1015.85
2017-03-31T02:31:00.200Z,1015.84
2017-03-31T02:31:40.817Z,1015.82
2017-03-31T02:32:21.413Z,1015.87
2017-03-31T02:33:02.000Z,1015.82
2017-03-31T02:33:42.590Z,1015.82
2017-03-31T02:34:23.197Z,1015.8
2017-03-31T02:35:03.818Z,1015.8
2017-03-31T02:35:44.399Z,1015.82
2017-03-31T02:36:25.016Z,1015.79
2017-03-31T02:37:05.616Z,1015.8
2017-03-31T02:37:46.221Z,1015.79
2017-03-31T02:38:26.822Z,1015.78
2017-03-31T02:39:07.429Z,1015.82
2017-03-31T02:39:48.024Z,1015.8
2017-03-31T02:40:28.607Z,1015.79
2017-03-31T02:41:09.177Z,1015.77
2017-03-31T02:41:49.767Z,1015.79
2017-03-31T02:42:30.350Z,1015.76
2017-03-31T02:43:10.920Z,1015.79
2017-03-31T02:43:51.498Z,1015.77
2017-03-31T02:44:32.081Z,1015.76
2017-03-31T02:45:12.685Z,1015.74
2017-03-31T02:45:53.242Z,1015.72
2017-03-31T02:46:33.839Z,1015.72
2017-03-31T02:47:14.431Z,1015.73
2017-03-31T02:47:55.015Z,1015.72
2017-03-31T02:48:35.603Z,1015.78
2017-03-31T02:49:16.191Z,1015.69
2017-03-31T02:49:56.768Z,1015.7
2017-03-31T02:50:37.347Z,1015.68
2017-03-31T02:51:17.947Z,1015.67
2017-03-31T02:51:58.555Z,1015.69
2017-03-31T02:52:39.118Z,1015.65
2017-03-31T02:53:19.692Z,1015.63
2017-03-31T02:54:00.263Z,1015.62
2017-03-31T02:54:40.856Z,1015.62
2017-03-31T02:55:21.440Z,1015.61
2017-03-31T02:56:02.029Z,1015.6
2017-03-31T02:56:42.611Z,1015.62
2017-03-31T02:57:23.218Z,1015.62
2017-03-31T02:58:03.793Z,1015.58
2017-03-31T02:58:44.370Z,1015.61
2017-03-31T02:59:24.940Z,1015.63
2017-03-31T03:00:05.522Z,1015.65
2017-03-31T03:00:46.118Z,1015.61
2017-03-31T03:01:26.692Z,1015.59
2017-03-31T03:02:07.301Z,1015.59
2017-03-31T03:02:47.910Z,1015.62
2017-03-31T03:03:28.513Z,1015.61
2017-03-31T03:04:09.152Z,1015.59
2017-03-31T03:04:49.771Z,1015.61
2017-03-31T03:05:30.356Z,1015.59
2017-03-31T03:06:10.966Z,1015.56
2017-03-31T03:06:51.555Z,1015.56
2017-03-31T03:07:32.141Z,1015.59
2017-03-31T03:08:12.747Z,1015.6
2017-03-31T03:08:53.322Z,1015.6
2017-03-31T03:09:33.929Z,1015.59
2017-03-31T03:10:14.513Z,1015.6
2017-03-31T03:10:55.087Z,1015.61
2017-03-31T03:11:35.677Z,1015.62
2017-03-31T03:12:16.309Z,1015.61
2017-03-31T03:12:56.873Z,1015.63
2017-03-31T03:13:37.477Z,1015.61
2017-03-31T03:14:18.192Z,1015.6
2017-03-31T03:14:58.781Z,1015.58
2017-03-31T03:15:39.364Z,1015.61
2017-03-31T03:16:19.977Z,1015.57
2017-03-31T03:17:00.563Z,1015.59
2017-03-31T03:17:41.173Z,1015.58
2017-03-31T03:18:21.772Z,1015.61
2017-03-31T03:19:02.340Z,1015.59
2017-03-31T03:19:42.926Z,1015.6
2017-03-31T03:20:23.537Z,1015.55
2017-03-31T03:21:04.113Z,1015.56
2017-03-31T03:21:44.698Z,1015.6
2017-03-31T03:22:25.288Z,1015.6
2017-03-31T03:23:05.852Z,1015.57
2017-03-31T03:23:46.426Z,1015.59
2017-03-31T03:24:27.011Z,1015.54
2017-03-31T03:25:07.628Z,1015.49
2017-03-31T03:25:48.229Z,1015.55
2017-03-31T03:26:28.793Z,1015.51
2017-03-31T03:27:09.401Z,1015.56
2017-03-31T03:27:49.985Z,1015.54
2017-03-31T03:28:30.565Z,1015.49
2017-03-31T03:29:11.140Z,1015.54
2017-03-31T03:29:51.733Z,1015.52
2017-03-31T03:30:32.367Z,1015.53
2017-03-31T03:31:12.984Z,1015.51
2017-03-31T03:31:53.564Z,1015.53
2017-03-31T03:32:34.124Z,1015.52
2017-03-31T03:33:14.725Z,1015.5
2017-03-31T03:33:55.328Z,1015.45
2017-03-31T03:34:35.897Z,1015.48
2017-03-31T03:35:16.467Z,1015.52
2017-03-31T03:35:57.039Z,1015.48
2017-03-31T03:36:37.625Z,1015.45
2017-03-31T03:37:18.201Z,1015.45
2017-03-31T03:37:58.776Z,1015.47
2017-03-31T03:38:39.334Z,1015.44
2017-03-31T03:39:19.946Z,1015.4
2017-03-31T03:40:00.569Z,1015.41
2017-03-31T03:40:41.138Z,1015.48
2017-03-31T03:41:21.798Z,1015.44
2017-03-31T03:42:02.393Z,1015.38
2017-03-31T03:42:43.007Z,1015.39
2017-03-31T03:43:23.572Z,1015.37
2017-03-31T03:44:04.152Z,1015.39
2017-03-31T03:44:44.741Z,1015.44
2017-03-31T03:45:25.347Z,1015.39
2017-03-31T03:46:05.958Z,1015.38
2017-03-31T03:46:46.566Z,1015.36
2017-03-31T03:47:27.147Z,1015.37
2017-03-31T03:48:07.763Z,1015.35
2017-03-31T03:48:48.512Z,1015.34
2017-03-31T03:49:29.163Z,1015.32
2017-03-31T03:50:09.750Z,1015.34
2017-03-31T03:50:50.319Z,1015.31
2017-03-31T03:51:30.922Z,1015.31
2017-03-31T03:52:11.500Z,1015.31
2017-03-31T03:52:52.086Z,1015.31
2017-03-31T03:53:32.670Z,1015.27
2017-03-31T03:54:13.242Z,1015.28
2017-03-31T03:54:53.824Z,1015.27
2017-03-31T03:55:34.439Z,1015.31
2017-03-31T03:56:15.026Z,1015.29
2017-03-31T03:56:55.620Z,1015.29
2017-03-31T03:57:36.238Z,1015.29
2017-03-31T03:58:16.840Z,1015.27
2017-03-31T03:58:57.431Z,1015.23
2017-03-31T03:59:38.023Z,1015.26
2017-03-31T04:00:19.394Z,1015.23
2017-03-31T04:01:04.297Z,1015.26
2017-03-31T04:01:49.786Z,1015.24
2017-03-31T04:02:32.337Z,1015.26
2017-03-31T04:03:12.904Z,1015.21
2017-03-31T04:03:53.497Z,1015.27
2017-03-31T04:04:34.065Z,1015.23
2017-03-31T04:05:14.647Z,1015.28
2017-03-31T04:05:55.241Z,1015.28
2017-03-31T04:06:35.807Z,1015.26
2017-03-31T04:07:16.375Z,1015.21
2017-03-31T04:07:56.980Z,1015.22
2017-03-31T04:08:37.586Z,1015.23
2017-03-31T04:09:18.169Z,1015.21
2017-03-31T04:09:58.794Z,1015.26
2017-03-31T04:10:39.358Z,1015.2
2017-03-31T04:11:19.933Z,1015.22
2017-03-31T04:12:00.512Z,1015.24
2017-03-31T04:12:41.133Z,1015.21
2017-03-31T04:13:21.687Z,1015.24
2017-03-31T04:14:02.302Z,1015.2
2017-03-31T04:14:42.889Z,1015.21
2017-03-31T04:15:23.487Z,1015.19
2017-03-31T04:16:04.082Z,1015.2
2017-03-31T04:16:44.659Z,1015.19
2017-03-31T04:17:25.235Z,1015.21
2017-03-31T04:18:05.881Z,1015.2
2017-03-31T04:18:46.486Z,1015.2
2017-03-31T04:19:27.051Z,1015.19
2017-03-31T04:20:07.650Z,1015.17
2017-03-31T04:20:48.227Z,1015.21
2017-03-31T04:21:28.812Z,1015.19
2017-03-31T04:22:09.388Z,1015.17
2017-03-31T04:22:49.966Z,1015.22
2017-03-31T04:23:30.533Z,1015.23
2017-03-31T04:24:11.142Z,1015.22
2017-03-31T04:24:51.740Z,1015.22
2017-03-31T04:25:32.372Z,1015.17
2017-03-31T04:26:13.011Z,1015.21
2017-03-31T04:26:53.553Z,1015.21
2017-03-31T04:27:34.241Z,1015.2
2017-03-31T04:28:14.944Z,1015.17
2017-03-31T04:28:55.541Z,1015.15
2017-03-31T04:29:36.154Z,1015.2
2017-03-31T04:30:16.718Z,1015.2
2017-03-31T04:30:57.357Z,1015.18
2017-03-31T04:31:37.939Z,1015.21
2017-03-31T04:32:18.525Z,1015.18
2017-03-31T04:32:59.148Z,1015.19
2017-03-31T04:33:39.715Z,1015.19
2017-03-31T04:34:20.297Z,1015.18
2017-03-31T04:35:00.928Z,1015.16
2017-03-31T04:35:41.514Z,1015.17
2017-03-31T04:36:22.144Z,1015.2
2017-03-31T04:37:02.760Z,1015.2
2017-03-31T04:37:43.311Z,1015.2
2017-03-31T04:38:23.934Z,1015.18
2017-03-31T04:39:04.515Z,1015.17
2017-03-31T04:39:45.105Z,1015.2
2017-03-31T04:40:25.693Z,1015.18
2017-03-31T04:41:06.310Z,1015.18
2017-03-31T04:41:46.888Z,1015.18
2017-03-31T04:42:27.480Z,1015.21
2017-03-31T04:43:08.089Z,1015.16
2017-03-31T04:43:48.680Z,1015.2
2017-03-31T04:44:29.288Z,1015.16
2017-03-31T04:45:09.869Z,1015.22
2017-03-31T04:45:50.461Z,1015.19
2017-03-31T04:46:31.000Z,1015.19
2017-03-31T04:47:11.605Z,1015.17
2017-03-31T04:47:52.196Z,1015.19
2017-03-31T04:48:32.775Z,1015.19
2017-03-31T04:49:13.354Z,1015.17
2017-03-31T04:49:53.932Z,1015.13
2017-03-31T04:50:34.503Z,1015.17
2017-03-31T04:51:15.098Z,1015.17
2017-03-31T04:51:55.709Z,1015.15
2017-03-31T04:52:36.282Z,1015.16
2017-03-31T04:53:16.879Z,1015.17
2017-03-31T04:53:57.456Z,1015.19
2017-03-31T04:54:38.588Z,1015.16
2017-03-31T04:55:28.535Z,1015.16
2017-03-31T04:57:22.246Z,1015.21
2017-03-31T04:58:03.266Z,1015.18
2017-03-31T04:58:46.453Z,1015.18
2017-03-31T04:59:27.313Z,1015.2
2017-03-31T05:00:07.941Z,1015.18
2017-03-31T05:00:48.679Z,1015.2
2017-03-31T05:01:30.830Z,1015.19
2017-03-31T05:02:14.039Z,1015.17
2017-03-31T05:03:09.097Z,1015.19
2017-03-31T05:04:00.878Z,1015.15
2017-03-31T05:04:43.446Z,1015.18
2017-03-31T05:05:24.185Z,1015.16
2017-03-31T05:06:04.766Z,1015.2
2017-03-31T05:06:45.351Z,1015.19
2017-03-31T05:07:25.908Z,1015.21
2017-03-31T05:08:06.523Z,1015.16
2017-03-31T05:08:47.123Z,1015.19
2017-03-31T05:09:27.691Z,1015.19
2017-03-31T05:10:08.287Z,1015.18
2017-03-31T05:10:48.863Z,1015.19
2017-03-31T05:11:29.450Z,1015.21
2017-03-31T05:12:10.030Z,1015.21
2017-03-31T05:12:50.596Z,1015.23
2017-03-31T05:13:31.161Z,1015.18
2017-03-31T05:14:11.735Z,1015.22
2017-03-31T05:14:52.297Z,1015.19
2017-03-31T05:15:32.884Z,1015.2
2017-03-31T05:16:13.710Z,1015.21
2017-03-31T05:16:54.429Z,1015.19
2017-03-31T05:17:35.006Z,1015.19
2017-03-31T05:18:15.597Z,1015.21
2017-03-31T05:18:56.186Z,1015.17
2017-03-31T05:19:36.764Z,1015.17
2017-03-31T05:20:17.365Z,1015.19
2017-03-31T05:20:57.938Z,1015.2
2017-03-31T05:21:38.525Z,1015.15
2017-03-31T05:22:19.127Z,1015.23
2017-03-31T05:22:59.693Z,1015.19
2017-03-31T05:23:40.277Z,1015.19
2017-03-31T05:24:20.872Z,1015.21
2017-03-31T05:25:01.468Z,1015.23
2017-03-31T05:25:42.062Z,1015.23
2017-03-31T05:26:22.631Z,1015.2
2017-03-31T05:27:03.217Z,1015.21
2017-03-31T05:27:43.796Z,1015.2
2017-03-31T05:28:24.368Z,1015.23
2017-03-31T05:29:04.953Z,1015.2
2017-03-31T05:29:45.582Z,1015.2
2017-03-31T05:30:26.210Z,1015.23
2017-03-31T05:31:06.811Z,1015.18
2017-03-31T05:31:47.381Z,1015.23
2017-03-31T05:32:27.963Z,1015.21
2017-03-31T05:33:08.545Z,1015.2
2017-03-31T05:33:49.111Z,1015.21
2017-03-31T05:34:29.692Z,1015.24
2017-03-31T05:35:10.293Z,1015.24
2017-03-31T05:35:50.890Z,1015.19
2017-03-31T05:36:31.515Z,1015.22
2017-03-31T05:37:12.102Z,1015.24
2017-03-31T05:37:52.715Z,1015.22
2017-03-31T05:38:33.308Z,1015.23
2017-03-31T05:39:13.890Z,1015.25
2017-03-31T05:39:54.477Z,1015.22
2017-03-31T05:40:35.086Z,1015.21
2017-03-31T05:41:15.685Z,1015.22
2017-03-31T05:41:56.276Z,1015.21
2017-03-31T05:42:36.866Z,1015.22
2017-03-31T05:43:17.477Z,1015.21
2017-03-31T05:43:58.069Z,1015.24
2017-03-31T05:44:38.678Z,1015.23
2017-03-31T05:45:19.266Z,1015.22
2017-03-31T05:45:59.844Z,1015.25
2017-03-31T05:46:40.427Z,1015.2
2017-03-31T05:47:21.058Z,1015.21
2017-03-31T05:48:01.675Z,1015.19
2017-03-31T05:48:42.290Z,1015.14
2017-03-31T05:49:22.896Z,1015.2
2017-03-31T05:50:03.492Z,1015.16
2017-03-31T05:50:44.127Z,1015.16
2017-03-31T05:51:24.736Z,1015.16
2017-03-31T05:52:05.370Z,1015.18
2017-03-31T05:52:45.934Z,1015.16
2017-03-31T05:53:26.542Z,1015.16
2017-03-31T05:54:07.158Z,1015.11
2017-03-31T05:54:47.753Z,1015.14
2017-03-31T05:55:28.322Z,1015.12
2017-03-31T05:56:08.908Z,1015.15
2017-03-31T05:56:50.233Z,1015.1
2017-03-31T05:57:30.875Z,1015.09
2017-03-31T05:58:11.454Z,1015.1
2017-03-31T05:58:52.121Z,1015.12
2017-03-31T05:59:32.706Z,1015.12
2017-03-31T06:00:13.341Z,1015.14
2017-03-31T06:00:53.899Z,1015.16
2017-03-31T06:01:34.512Z,1015.11
2017-03-31T06:02:15.135Z,1015.14
2017-03-31T06:02:55.691Z,1015.15
2017-03-31T06:03:36.295Z,1015.15
2017-03-31T06:04:16.909Z,1015.13
2017-03-31T06:04:57.503Z,1015.17
2017-03-31T06:05:38.096Z,1015.13
2017-03-31T06:06:18.690Z,1015.16
2017-03-31T06:06:59.291Z,1015.11
2017-03-31T06:07:39.967Z,1015.1
2017-03-31T06:08:20.534Z,1015.1
2017-03-31T06:09:01.126Z,1015.1
2017-03-31T06:09:41.707Z,1015.04
2017-03-31T06:10:22.313Z,1015.11
2017-03-31T06:11:02.914Z,1015.05
2017-03-31T06:11:43.512Z,1015.04
2017-03-31T06:12:24.144Z,1015.03
2017-03-31T06:13:04.724Z,1015.02
2017-03-31T06:13:45.302Z,1015.02
2017-03-31T06:14:25.903Z,1015
2017-03-31T06:15:06.511Z,1015.06
2017-03-31T06:15:47.090Z,1015
2017-03-31T06:16:27.688Z,1014.99
2017-03-31T06:17:08.275Z,1015
2017-03-31T06:17:48.837Z,1014.97
2017-03-31T06:18:29.421Z,1015
2017-03-31T06:19:09.991Z,1014.99
2017-03-31T06:19:50.564Z,1015
2017-03-31T06:20:31.134Z,1014.99
2017-03-31T06:21:11.712Z,1015.01
2017-03-31T06:21:52.323Z,1015.01
2017-03-31T06:22:32.916Z,1014.99
2017-03-31T06:23:13.502Z,1014.98
2017-03-31T06:23:54.078Z,1015
2017-03-31T06:24:34.667Z,1015.01
2017-03-31T06:25:15.248Z,1015
2017-03-31T06:25:55.848Z,1014.99
2017-03-31T06:26:36.440Z,1014.99
2017-03-31T06:27:17.038Z,1014.99
2017-03-31T06:27:57.620Z,1014.96
2017-03-31T06:28:38.192Z,1015.01
2017-03-31T06:29:18.772Z,1014.98
2017-03-31T06:29:59.366Z,1014.97
2017-03-31T06:30:39.981Z,1014.95
2017-03-31T06:31:20.561Z,1014.97
2017-03-31T06:32:01.140Z,1014.98
2017-03-31T06:32:41.747Z,1014.99
2017-03-31T06:33:22.329Z,1014.97
2017-03-31T06:34:02.934Z,1015.03
2017-03-31T06:34:43.710Z,1014.99
2017-03-31T06:35:24.375Z,1014.97
2017-03-31T06:36:05.055Z,1015
2017-03-31T06:36:45.627Z,1014.97
2017-03-31T06:37:26.305Z,1014.99
2017-03-31T06:38:06.932Z,1014.98
2017-03-31T06:38:47.521Z,1014.94
2017-03-31T06:39:28.106Z,1014.96
2017-03-31T06:40:08.693Z,1014.99
2017-03-31T06:40:49.287Z,1014.97
2017-03-31T06:41:29.880Z,1014.97
2017-03-31T06:42:10.496Z,1014.97
2017-03-31T06:42:51.076Z,1014.98
2017-03-31T06:43:31.679Z,1014.99
2017-03-31T06:44:12.283Z,1015.05
2017-03-31T06:44:52.870Z,1014.98
2017-03-31T06:45:33.451Z,1015.04
2017-03-31T06:46:14.046Z,1015.01
2017-03-31T06:46:54.623Z,1015.05
2017-03-31T06:47:35.211Z,1015.1
2017-03-31T06:48:15.803Z,1015.06
2017-03-31T06:48:56.465Z,1015.12
2017-03-31T06:49:37.061Z,1015.07
2017-03-31T06:50:17.673Z,1015.09
2017-03-31T06:50:58.282Z,1015.05
2017-03-31T06:51:38.872Z,1015.07
2017-03-31T06:52:19.454Z,1015.09
2017-03-31T06:53:00.082Z,1015.09
2017-03-31T06:53:40.692Z,1015.12
2017-03-31T06:54:21.308Z,1015.12
2017-03-31T06:55:01.897Z,1015.09
2017-03-31T06:55:42.474Z,1015.13
2017-03-31T06:56:23.096Z,1015.11
2017-03-31T06:57:03.701Z,1015.05
2017-03-31T06:57:44.296Z,1015.08
2017-03-31T06:58:24.891Z,1015.13
2017-03-31T06:59:05.487Z,1015.09
2017-03-31T06:59:46.080Z,1015.13
2017-03-31T07:00:26.686Z,1015.1
2017-03-31T07:01:07.279Z,1015.14
2017-03-31T07:01:47.918Z,1015.13
2017-03-31T07:02:28.541Z,1015.12
2017-03-31T07:03:09.135Z,1015.13
2017-03-31T07:03:49.774Z,1015.07
2017-03-31T07:04:30.383Z,1015.08
2017-03-31T07:05:11.007Z,1015.07
2017-03-31T07:05:51.629Z,1015.06
2017-03-31T07:06:32.237Z,1015.1
2017-03-31T07:07:12.852Z,1015.11
2017-03-31T07:07:53.494Z,1015.09
2017-03-31T07:08:34.092Z,1015.13
2017-03-31T07:09:14.673Z,1015.06
2017-03-31T07:09:55.339Z,1015.09
2017-03-31T07:10:35.958Z,1015.11
2017-03-31T07:11:16.554Z,1015.13
2017-03-31T07:11:57.176Z,1015.16
2017-03-31T07:12:37.787Z,1015.12
2017-03-31T07:13:18.402Z,1015.13
2017-03-31T07:13:59.011Z,1015.14
2017-03-31T07:14:39.610Z,1015.13
2017-03-31T07:15:20.222Z,1015.15
2017-03-31T07:16:00.821Z,1015.16
2017-03-31T07:16:41.415Z,1015.16
2017-03-31T07:17:22.071Z,1015.15
2017-03-31T07:18:02.685Z,1015.15
2017-03-31T07:18:43.285Z,1015.15
2017-03-31T07:19:23.881Z,1015.11
2017-03-31T07:20:04.489Z,1015.08
2017-03-31T07:20:45.091Z,1015.13
2017-03-31T07:21:25.708Z,1015.11
2017-03-31T07:22:06.378Z,1015.13
2017-03-31T07:22:46.953Z,1015.08
2017-03-31T07:23:27.583Z,1015.11
2017-03-31T07:24:08.216Z,1015.11
2017-03-31T07:24:48.849Z,1015.11
2017-03-31T07:25:29.441Z,1015.09
2017-03-31T07:26:10.051Z,1015.12
2017-03-31T07:26:50.658Z,1015.1
2017-03-31T07:27:31.270Z,1015.09
2017-03-31T07:28:11.870Z,1015.1
2017-03-31T07:28:52.460Z,1015.14
2017-03-31T07:29:33.048Z,1015.12
2017-03-31T07:30:13.642Z,1015.11
2017-03-31T07:30:54.265Z,1015.07
2017-03-31T07:31:34.860Z,1015.05
2017-03-31T07:32:15.478Z,1015.08
2017-03-31T07:32:56.121Z,1015.05
2017-03-31T07:33:36.714Z,1015.07
2017-03-31T07:34:17.328Z,1015.07
2017-03-31T07:34:57.938Z,1015.09
2017-03-31T07:35:38.534Z,1015.07
2017-03-31T07:36:19.138Z,1015.05
2017-03-31T07:36:59.729Z,1015.05
2017-03-31T07:37:40.343Z,1015.06
2017-03-31T07:38:20.963Z,1015.02
2017-03-31T07:39:01.583Z,1015.04
2017-03-31T07:39:42.171Z,1015.02
2017-03-31T07:40:22.777Z,1015
2017-03-31T07:41:03.378Z,1014.98
2017-03-31T07:41:43.996Z,1014.98
2017-03-31T07:42:24.626Z,1014.99
2017-03-31T07:43:05.230Z,1014.99
2017-03-31T07:43:45.835Z,1015
2017-03-31T07:44:26.428Z,1014.98
2017-03-31T07:45:07.022Z,1015.02
2017-03-31T07:45:47.643Z,1015.02
2017-03-31T07:46:28.239Z,1015.03
2017-03-31T07:47:08.877Z,1015.04
2017-03-31T07:47:49.490Z,1015.06
2017-03-31T07:48:30.095Z,1015.07
2017-03-31T07:49:10.722Z,1015.01
2017-03-31T07:49:51.339Z,1015.04
2017-03-31T07:50:31.932Z,1015.03
2017-03-31T07:51:12.534Z,1015.04
2017-03-31T07:51:53.130Z,1014.98
2017-03-31T07:52:33.727Z,1015.03
2017-03-31T07:53:14.345Z,1015.02
2017-03-31T07:53:54.958Z,1014.98
2017-03-31T07:54:35.548Z,1014.96
2017-03-31T07:55:16.143Z,1014.97
2017-03-31T07:55:56.744Z,1014.98
2017-03-31T07:56:37.355Z,1014.93
2017-03-31T07:57:17.974Z,1014.95
2017-03-31T07:57:58.615Z,1014.93
2017-03-31T07:58:39.259Z,1014.91
2017-03-31T07:59:19.856Z,1014.93
2017-03-31T08:00:00.485Z,1014.88
2017-03-31T08:00:41.095Z,1014.89
2017-03-31T08:01:21.703Z,1014.86
2017-03-31T08:02:02.338Z,1014.87
2017-03-31T08:02:42.929Z,1014.87
2017-03-31T08:03:23.573Z,1014.83
2017-03-31T08:04:04.202Z,1014.85
2017-03-31T08:04:44.894Z,1014.87
2017-03-31T08:05:25.529Z,1014.83
2017-03-31T08:06:06.169Z,1014.81
2017-03-31T08:06:46.826Z,1014.84
2017-03-31T08:07:27.399Z,1014.79
2017-03-31T08:08:08.011Z,1014.75
2017-03-31T08:08:48.708Z,1014.78
2017-03-31T08:09:29.323Z,1014.82
2017-03-31T08:10:09.972Z,1014.78
2017-03-31T08:10:50.598Z,1014.8
2017-03-31T08:11:31.264Z,1014.78
2017-03-31T08:12:11.888Z,1014.8
2017-03-31T08:12:52.558Z,1014.75
2017-03-31T08:13:33.149Z,1014.79
2017-03-31T08:14:13.748Z,1014.8
2017-03-31T08:14:54.334Z,1014.77
2017-03-31T08:15:34.960Z,1014.77
2017-03-31T08:16:15.575Z,1014.78